Terminal Aerodrome Forecast
Issued by NWS

Home | Current Version | Previous Version | Text Only | Print | Product List | Glossary On
Versions: 1 2 3 4 5 6 7 8 9 10 11 12 13 14 15 16 17 18
000
FTUS43 KGRR 031130
TAFBTL
TAF
KBTL 031130Z 0312/0412 19004KT 5SM BR SCT050
     FM031400 13006KT P6SM VCTS BKN040CB
     FM032100 13006KT P6SM VCSH BKN050
     FM040600 08003KT 2SM BR BKN009=

USA.gov is the U.S. government's official web portal to all federal, state and local government web resources and services.